<?xml version="1.0" encoding="UTF-8" standalone="no" ?>
<gpx xmlns="http://www.topografix.com/GPX/1/1" xmlns:xsi="http://www.w3.org/2001/XMLSchema-instance" xsi:schemaLocation="http://www.topografix.com/GPX/1/1 http://www.topografix.com/GPX/1/1/gpx.xsd" version="1.1" creator="VisuGPX - https://www.visugpx.com">
  <metadata>
    <name>Roche Blanche en boucle par le pas de la Mort (Chartreuse)</name>
    <desc><![CDATA[Au départ du [b] cirque de Saint Même[/b] . Montée par [b] le pas de la Mort[/b]  puis passage au [b] habert de la Dame[/b] . Descente par le GR jusqu'aux contreforts de [b] Roche Blanche[/b]  pour en longer le cirque en face Ouest (casque conseillé).
Descente sur [b] les Varvats[/b] . A la première bifurcation (sur un plat) prendre le chemin qui repart plein sud et qui descend sur [b] les Eclapes[/b]  (de nombreux cairs).
.
photos là: [url]https://goo.gl/photos/zLEcM8K9MaizpSpi9[/url]
.
Autres sorties en Chartreuse --> [url]https://www.visugpx.com/membres/87/chartreuse/[/url]]]></desc>
  </metadata>
  <wpt lat="45.39044" lon="5.8946">
    <ele>1357.49707</ele>
    <name><![CDATA[001]]></name>
    <desc><![CDATA[11-MAI-13]]></desc>
    <cmt><![CDATA[11-MAI-13]]></cmt>
  </wpt>
  <wpt lat="45.39046" lon="5.89468">
    <ele>1370.955566</ele>
    <name><![CDATA[002]]></name>
    <desc><![CDATA[11-MAI-13]]></desc>
    <cmt><![CDATA[11-MAI-13]]></cmt>
  </wpt>
  <wpt lat="45.39097" lon="5.89645">
    <ele>1458.43457</ele>
    <name><![CDATA[003]]></name>
    <desc><![CDATA[11-MAI-13]]></desc>
    <cmt><![CDATA[11-MAI-13]]></cmt>
  </wpt>
  <wpt lat="45.39319" lon="5.90234">
    <ele>1548.557617</ele>
    <name><![CDATA[004]]></name>
    <desc><![CDATA[11-MAI-13]]></desc>
    <cmt><![CDATA[11-MAI-13]]></cmt>
  </wpt>
  <wpt lat="45.39936" lon="5.90329">
    <ele>1369.273193</ele>
    <name><![CDATA[005]]></name>
    <desc><![CDATA[11-MAI-13]]></desc>
    <cmt><![CDATA[11-MAI-13]]></cmt>
  </wpt>
  <wpt lat="45.39871" lon="5.90681">
    <ele>1487.514404</ele>
    <name><![CDATA[006]]></name>
    <desc><![CDATA[11-MAI-13]]></desc>
    <cmt><![CDATA[11-MAI-13]]></cmt>
  </wpt>
  <wpt lat="45.4027" lon="5.90061">
    <ele>1183.259521</ele>
    <name><![CDATA[007]]></name>
    <desc><![CDATA[11-MAI-13]]></desc>
    <cmt><![CDATA[11-MAI-13]]></cmt>
  </wpt>
  <trk>
    <name><![CDATA[Roche Blanche en boucle par le pas de la Mort (Chartreuse)_1]]></name>
    <trkseg>
      <trkpt lat="45.40342" lon="5.88868">
        <ele>856.671875</ele>
        <time>2013-05-11T05:43:56Z</time>
      </trkpt>
      <trkpt lat="45.40294" lon="5.88925">
        <ele>868.207764</ele>
        <time>2013-05-11T05:44:54Z</time>
      </trkpt>
      <trkpt lat="45.40232" lon="5.88959">
        <ele>865.804688</ele>
        <time>2013-05-11T05:45:46Z</time>
      </trkpt>
      <trkpt lat="45.40174" lon="5.89059">
        <ele>875.898193</ele>
        <time>2013-05-11T05:47:15Z</time>
      </trkpt>
      <trkpt lat="45.40096" lon="5.89052">
        <ele>864.843262</ele>
        <time>2013-05-11T05:48:11Z</time>
      </trkpt>
      <trkpt lat="45.39995" lon="5.89117">
        <ele>894.163574</ele>
        <time>2013-05-11T05:50:25Z</time>
      </trkpt>
      <trkpt lat="45.39909" lon="5.89146">
        <ele>884.06958</ele>
        <time>2013-05-11T05:51:41Z</time>
      </trkpt>
      <trkpt lat="45.39826" lon="5.8921">
        <ele>888.395508</ele>
        <time>2013-05-11T05:54:09Z</time>
      </trkpt>
      <trkpt lat="45.39797" lon="5.89182">
        <ele>892.240967</ele>
        <time>2013-05-11T05:54:54Z</time>
      </trkpt>
      <trkpt lat="45.39715" lon="5.89186">
        <ele>886.953369</ele>
        <time>2013-05-11T05:56:31Z</time>
      </trkpt>
      <trkpt lat="45.39694" lon="5.89157">
        <ele>873.975586</ele>
        <time>2013-05-11T05:57:15Z</time>
      </trkpt>
      <trkpt lat="45.39636" lon="5.89136">
        <ele>926.367676</ele>
        <time>2013-05-11T05:58:14Z</time>
      </trkpt>
      <trkpt lat="45.39637" lon="5.89122">
        <ele>928.770996</ele>
        <time>2013-05-11T05:58:26Z</time>
      </trkpt>
      <trkpt lat="45.39539" lon="5.89144">
        <ele>885.031006</ele>
        <time>2013-05-11T06:00:01Z</time>
      </trkpt>
      <trkpt lat="45.39527" lon="5.89115">
        <ele>881.185791</ele>
        <time>2013-05-11T06:00:32Z</time>
      </trkpt>
      <trkpt lat="45.39505" lon="5.89157">
        <ele>951.842529</ele>
        <time>2013-05-11T06:01:25Z</time>
      </trkpt>
      <trkpt lat="45.39527" lon="5.89134">
        <ele>977.317627</ele>
        <time>2013-05-11T06:02:50Z</time>
      </trkpt>
      <trkpt lat="45.39517" lon="5.89131">
        <ele>934.058105</ele>
        <time>2013-05-11T06:03:01Z</time>
      </trkpt>
      <trkpt lat="45.39543" lon="5.89104">
        <ele>908.583252</ele>
        <time>2013-05-11T06:03:42Z</time>
      </trkpt>
      <trkpt lat="45.39538" lon="5.8913">
        <ele>885.031006</ele>
        <time>2013-05-11T06:03:58Z</time>
      </trkpt>
      <trkpt lat="45.39556" lon="5.89144">
        <ele>901.854004</ele>
        <time>2013-05-11T06:04:17Z</time>
      </trkpt>
      <trkpt lat="45.39622" lon="5.89131">
        <ele>883.108154</ele>
        <time>2013-05-11T06:05:42Z</time>
      </trkpt>
      <trkpt lat="45.39586" lon="5.8916">
        <ele>941.748779</ele>
        <time>2013-05-11T06:07:36Z</time>
      </trkpt>
      <trkpt lat="45.39592" lon="5.89208">
        <ele>934.058105</ele>
        <time>2013-05-11T06:09:01Z</time>
      </trkpt>
      <trkpt lat="45.39559" lon="5.89215">
        <ele>937.422607</ele>
        <time>2013-05-11T06:09:54Z</time>
      </trkpt>
      <trkpt lat="45.3957" lon="5.89237">
        <ele>941.748779</ele>
        <time>2013-05-11T06:10:31Z</time>
      </trkpt>
      <trkpt lat="45.39505" lon="5.89231">
        <ele>938.864746</ele>
        <time>2013-05-11T06:13:57Z</time>
      </trkpt>
      <trkpt lat="45.39525" lon="5.89296">
        <ele>982.604736</ele>
        <time>2013-05-11T06:16:35Z</time>
      </trkpt>
      <trkpt lat="45.39499" lon="5.89292">
        <ele>984.527344</ele>
        <time>2013-05-11T06:17:09Z</time>
      </trkpt>
      <trkpt lat="45.39503" lon="5.89328">
        <ele>996.063232</ele>
        <time>2013-05-11T06:18:27Z</time>
      </trkpt>
      <trkpt lat="45.392" lon="5.89283">
        <ele>956.64917</ele>
        <time>2013-05-11T06:26:47Z</time>
      </trkpt>
      <trkpt lat="45.39154" lon="5.89247">
        <ele>980.682129</ele>
        <time>2013-05-11T06:28:48Z</time>
      </trkpt>
      <trkpt lat="45.39163" lon="5.89177">
        <ele>998.947021</ele>
        <time>2013-05-11T06:31:16Z</time>
      </trkpt>
      <trkpt lat="45.39142" lon="5.89185">
        <ele>986.449951</ele>
        <time>2013-05-11T06:31:47Z</time>
      </trkpt>
      <trkpt lat="45.39195" lon="5.89168">
        <ele>1043.648438</ele>
        <time>2013-05-11T06:35:12Z</time>
      </trkpt>
      <trkpt lat="45.39165" lon="5.89175">
        <ele>1013.366943</ele>
        <time>2013-05-11T06:35:55Z</time>
      </trkpt>
      <trkpt lat="45.39186" lon="5.89176">
        <ele>1040.283936</ele>
        <time>2013-05-11T06:36:37Z</time>
      </trkpt>
      <trkpt lat="45.39203" lon="5.89239">
        <ele>1045.571045</ele>
        <time>2013-05-11T06:38:31Z</time>
      </trkpt>
      <trkpt lat="45.39159" lon="5.8924">
        <ele>1055.184326</ele>
        <time>2013-05-11T06:39:43Z</time>
      </trkpt>
      <trkpt lat="45.3917" lon="5.89274">
        <ele>1075.371826</ele>
        <time>2013-05-11T06:41:16Z</time>
      </trkpt>
      <trkpt lat="45.39123" lon="5.89261">
        <ele>1111.421387</ele>
        <time>2013-05-11T06:43:23Z</time>
      </trkpt>
      <trkpt lat="45.39138" lon="5.89332">
        <ele>1113.343994</ele>
        <time>2013-05-11T06:46:00Z</time>
      </trkpt>
      <trkpt lat="45.39167" lon="5.89335">
        <ele>1146.509521</ele>
        <time>2013-05-11T06:48:14Z</time>
      </trkpt>
      <trkpt lat="45.39164" lon="5.89358">
        <ele>1146.028809</ele>
        <time>2013-05-11T06:48:58Z</time>
      </trkpt>
      <trkpt lat="45.39112" lon="5.89317">
        <ele>1164.774658</ele>
        <time>2013-05-11T06:51:07Z</time>
      </trkpt>
      <trkpt lat="45.39141" lon="5.89396">
        <ele>1182.559082</ele>
        <time>2013-05-11T06:53:02Z</time>
      </trkpt>
      <trkpt lat="45.39132" lon="5.89432">
        <ele>1169.100586</ele>
        <time>2013-05-11T06:54:23Z</time>
      </trkpt>
      <trkpt lat="45.3912" lon="5.894">
        <ele>1186.404297</ele>
        <time>2013-05-11T06:55:07Z</time>
      </trkpt>
      <trkpt lat="45.39083" lon="5.89403">
        <ele>1193.133301</ele>
        <time>2013-05-11T06:56:33Z</time>
      </trkpt>
      <trkpt lat="45.39031" lon="5.89346">
        <ele>1213.801758</ele>
        <time>2013-05-11T06:58:36Z</time>
      </trkpt>
      <trkpt lat="45.39105" lon="5.8942">
        <ele>1240.718506</ele>
        <time>2013-05-11T07:03:45Z</time>
      </trkpt>
      <trkpt lat="45.39134" lon="5.8941">
        <ele>1289.265137</ele>
        <time>2013-05-11T07:05:56Z</time>
      </trkpt>
      <trkpt lat="45.39152" lon="5.89453">
        <ele>1266.674316</ele>
        <time>2013-05-11T07:07:28Z</time>
      </trkpt>
      <trkpt lat="45.39128" lon="5.89473">
        <ele>1259.464355</ele>
        <time>2013-05-11T07:09:35Z</time>
      </trkpt>
      <trkpt lat="45.39168" lon="5.89489">
        <ele>1267.635498</ele>
        <time>2013-05-11T07:10:38Z</time>
      </trkpt>
      <trkpt lat="45.3923" lon="5.8948">
        <ele>1274.364746</ele>
        <time>2013-05-11T07:13:14Z</time>
      </trkpt>
      <trkpt lat="45.39258" lon="5.89558">
        <ele>1266.674316</ele>
        <time>2013-05-11T07:14:15Z</time>
      </trkpt>
      <trkpt lat="45.39304" lon="5.89615">
        <ele>1283.016602</ele>
        <time>2013-05-11T07:15:31Z</time>
      </trkpt>
      <trkpt lat="45.39287" lon="5.89639">
        <ele>1271.961426</ele>
        <time>2013-05-11T07:15:59Z</time>
      </trkpt>
      <trkpt lat="45.39286" lon="5.89599">
        <ele>1303.204346</ele>
        <time>2013-05-11T07:16:29Z</time>
      </trkpt>
      <trkpt lat="45.39257" lon="5.89608">
        <ele>1323.39209</ele>
        <time>2013-05-11T07:18:57Z</time>
      </trkpt>
      <trkpt lat="45.3927" lon="5.8962">
        <ele>1325.79541</ele>
        <time>2013-05-11T07:19:59Z</time>
      </trkpt>
      <trkpt lat="45.39264" lon="5.89583">
        <ele>1339.253662</ele>
        <time>2013-05-11T07:22:50Z</time>
      </trkpt>
      <trkpt lat="45.39236" lon="5.89581">
        <ele>1343.579834</ele>
        <time>2013-05-11T07:24:15Z</time>
      </trkpt>
      <trkpt lat="45.3924" lon="5.89557">
        <ele>1356.076904</ele>
        <time>2013-05-11T07:25:15Z</time>
      </trkpt>
      <trkpt lat="45.3921" lon="5.89551">
        <ele>1351.750977</ele>
        <time>2013-05-11T07:25:50Z</time>
      </trkpt>
      <trkpt lat="45.39196" lon="5.89525">
        <ele>1357.03833</ele>
        <time>2013-05-11T07:26:48Z</time>
      </trkpt>
      <trkpt lat="45.3921" lon="5.89523">
        <ele>1375.303223</ele>
        <time>2013-05-11T07:27:40Z</time>
      </trkpt>
      <trkpt lat="45.39159" lon="5.89488">
        <ele>1360.883545</ele>
        <time>2013-05-11T07:29:52Z</time>
      </trkpt>
      <trkpt lat="45.39042" lon="5.89477">
        <ele>1365.209473</ele>
        <time>2013-05-11T07:32:37Z</time>
      </trkpt>
      <trkpt lat="45.39007" lon="5.89456">
        <ele>1362.325439</ele>
        <time>2013-05-11T07:34:54Z</time>
      </trkpt>
      <trkpt lat="45.39022" lon="5.89449">
        <ele>1377.706543</ele>
        <time>2013-05-11T07:36:08Z</time>
      </trkpt>
      <trkpt lat="45.39001" lon="5.89446">
        <ele>1363.286865</ele>
        <time>2013-05-11T07:38:22Z</time>
      </trkpt>
      <trkpt lat="45.39028" lon="5.89461">
        <ele>1350.789551</ele>
        <time>2013-05-11T07:39:43Z</time>
      </trkpt>
      <trkpt lat="45.39046" lon="5.89445">
        <ele>1355.115479</ele>
        <time>2013-05-11T07:40:43Z</time>
      </trkpt>
      <trkpt lat="45.39041" lon="5.89525">
        <ele>1386.358398</ele>
        <time>2013-05-11T07:44:57Z</time>
      </trkpt>
      <trkpt lat="45.39029" lon="5.89524">
        <ele>1399.336182</ele>
        <time>2013-05-11T07:45:31Z</time>
      </trkpt>
      <trkpt lat="45.39027" lon="5.89551">
        <ele>1397.413574</ele>
        <time>2013-05-11T07:46:48Z</time>
      </trkpt>
      <trkpt lat="45.39069" lon="5.8964">
        <ele>1437.789062</ele>
        <time>2013-05-11T07:51:57Z</time>
      </trkpt>
      <trkpt lat="45.39083" lon="5.8961">
        <ele>1440.672852</ele>
        <time>2013-05-11T07:53:29Z</time>
      </trkpt>
      <trkpt lat="45.39079" lon="5.89631">
        <ele>1444.998779</ele>
        <time>2013-05-11T07:54:06Z</time>
      </trkpt>
      <trkpt lat="45.39111" lon="5.89611">
        <ele>1445.479492</ele>
        <time>2013-05-11T07:55:14Z</time>
      </trkpt>
      <trkpt lat="45.39089" lon="5.89622">
        <ele>1473.35791</ele>
        <time>2013-05-11T07:57:47Z</time>
      </trkpt>
      <trkpt lat="45.39099" lon="5.89646">
        <ele>1457.976807</ele>
        <time>2013-05-11T07:59:01Z</time>
      </trkpt>
      <trkpt lat="45.39237" lon="5.89731">
        <ele>1458.457275</ele>
        <time>2013-05-11T08:03:52Z</time>
      </trkpt>
      <trkpt lat="45.39171" lon="5.89776">
        <ele>1477.203125</ele>
        <time>2013-05-11T08:06:23Z</time>
      </trkpt>
      <trkpt lat="45.39093" lon="5.89946">
        <ele>1516.136475</ele>
        <time>2013-05-11T08:10:54Z</time>
      </trkpt>
      <trkpt lat="45.39156" lon="5.89936">
        <ele>1530.075439</ele>
        <time>2013-05-11T08:12:48Z</time>
      </trkpt>
      <trkpt lat="45.39181" lon="5.89909">
        <ele>1534.401611</ele>
        <time>2013-05-11T08:13:35Z</time>
      </trkpt>
      <trkpt lat="45.39334" lon="5.89913">
        <ele>1532.479004</ele>
        <time>2013-05-11T08:15:58Z</time>
      </trkpt>
      <trkpt lat="45.39354" lon="5.90009">
        <ele>1535.362793</ele>
        <time>2013-05-11T08:18:02Z</time>
      </trkpt>
      <trkpt lat="45.3935" lon="5.9006">
        <ele>1539.688721</ele>
        <time>2013-05-11T08:19:01Z</time>
      </trkpt>
      <trkpt lat="45.39287" lon="5.90127">
        <ele>1560.356934</ele>
        <time>2013-05-11T08:23:12Z</time>
      </trkpt>
      <trkpt lat="45.39313" lon="5.90234">
        <ele>1544.014648</ele>
        <time>2013-05-11T08:29:54Z</time>
      </trkpt>
      <trkpt lat="45.39369" lon="5.90239">
        <ele>1533.920898</ele>
        <time>2013-05-11T08:32:26Z</time>
      </trkpt>
      <trkpt lat="45.39431" lon="5.90199">
        <ele>1522.865723</ele>
        <time>2013-05-11T08:33:58Z</time>
      </trkpt>
      <trkpt lat="45.39495" lon="5.90089">
        <ele>1501.716797</ele>
        <time>2013-05-11T08:36:29Z</time>
      </trkpt>
      <trkpt lat="45.39494" lon="5.90043">
        <ele>1488.258301</ele>
        <time>2013-05-11T08:37:50Z</time>
      </trkpt>
      <trkpt lat="45.39525" lon="5.90009">
        <ele>1476.722412</ele>
        <time>2013-05-11T08:39:41Z</time>
      </trkpt>
      <trkpt lat="45.39577" lon="5.90102">
        <ele>1462.783203</ele>
        <time>2013-05-11T08:41:53Z</time>
      </trkpt>
      <trkpt lat="45.39588" lon="5.90079">
        <ele>1457.496094</ele>
        <time>2013-05-11T08:42:36Z</time>
      </trkpt>
      <trkpt lat="45.39774" lon="5.90332">
        <ele>1414.717285</ele>
        <time>2013-05-11T08:50:16Z</time>
      </trkpt>
      <trkpt lat="45.39766" lon="5.90325">
        <ele>1423.849854</ele>
        <time>2013-05-11T08:51:23Z</time>
      </trkpt>
      <trkpt lat="45.39796" lon="5.90358">
        <ele>1419.523926</ele>
        <time>2013-05-11T08:52:30Z</time>
      </trkpt>
      <trkpt lat="45.39789" lon="5.90385">
        <ele>1415.197998</ele>
        <time>2013-05-11T08:53:14Z</time>
      </trkpt>
      <trkpt lat="45.39802" lon="5.90438">
        <ele>1415.197998</ele>
        <time>2013-05-11T08:56:02Z</time>
      </trkpt>
      <trkpt lat="45.39832" lon="5.90475">
        <ele>1392.607178</ele>
        <time>2013-05-11T08:56:42Z</time>
      </trkpt>
      <trkpt lat="45.39831" lon="5.90501">
        <ele>1411.833496</ele>
        <time>2013-05-11T08:57:19Z</time>
      </trkpt>
      <trkpt lat="45.3979" lon="5.90366">
        <ele>1407.026855</ele>
        <time>2013-05-11T09:00:40Z</time>
      </trkpt>
      <trkpt lat="45.398" lon="5.90358">
        <ele>1392.607178</ele>
        <time>2013-05-11T09:00:53Z</time>
      </trkpt>
      <trkpt lat="45.39779" lon="5.90287">
        <ele>1399.816895</ele>
        <time>2013-05-11T09:02:17Z</time>
      </trkpt>
      <trkpt lat="45.39789" lon="5.90282">
        <ele>1420.004639</ele>
        <time>2013-05-11T09:03:57Z</time>
      </trkpt>
      <trkpt lat="45.39777" lon="5.90241">
        <ele>1379.148438</ele>
        <time>2013-05-11T09:04:53Z</time>
      </trkpt>
      <trkpt lat="45.39926" lon="5.90311">
        <ele>1355.115479</ele>
        <time>2013-05-11T09:08:22Z</time>
      </trkpt>
      <trkpt lat="45.39939" lon="5.90364">
        <ele>1362.325439</ele>
        <time>2013-05-11T09:10:31Z</time>
      </trkpt>
      <trkpt lat="45.39919" lon="5.90368">
        <ele>1394.049072</ele>
        <time>2013-05-11T09:12:10Z</time>
      </trkpt>
      <trkpt lat="45.39938" lon="5.9049">
        <ele>1395.97168</ele>
        <time>2013-05-11T09:17:43Z</time>
      </trkpt>
      <trkpt lat="45.39916" lon="5.90513">
        <ele>1408.949463</ele>
        <time>2013-05-11T09:19:01Z</time>
      </trkpt>
      <trkpt lat="45.39915" lon="5.90563">
        <ele>1420.966064</ele>
        <time>2013-05-11T09:21:01Z</time>
      </trkpt>
      <trkpt lat="45.39895" lon="5.90567">
        <ele>1432.020996</ele>
        <time>2013-05-11T09:22:04Z</time>
      </trkpt>
      <trkpt lat="45.39898" lon="5.90617">
        <ele>1434.905029</ele>
        <time>2013-05-11T09:25:18Z</time>
      </trkpt>
      <trkpt lat="45.39873" lon="5.90637">
        <ele>1450.766602</ele>
        <time>2013-05-11T09:28:35Z</time>
      </trkpt>
      <trkpt lat="45.39891" lon="5.90666">
        <ele>1460.379883</ele>
        <time>2013-05-11T09:30:24Z</time>
      </trkpt>
      <trkpt lat="45.39879" lon="5.90667">
        <ele>1464.225098</ele>
        <time>2013-05-11T09:31:31Z</time>
      </trkpt>
      <trkpt lat="45.39902" lon="5.907">
        <ele>1471.915771</ele>
        <time>2013-05-11T09:34:06Z</time>
      </trkpt>
      <trkpt lat="45.39862" lon="5.90688">
        <ele>1471.915771</ele>
        <time>2013-05-11T09:37:36Z</time>
      </trkpt>
      <trkpt lat="45.39883" lon="5.90683">
        <ele>1485.85498</ele>
        <time>2013-05-11T09:38:35Z</time>
      </trkpt>
      <trkpt lat="45.39958" lon="5.90742">
        <ele>1447.4021</ele>
        <time>2013-05-11T09:40:54Z</time>
      </trkpt>
      <trkpt lat="45.39949" lon="5.90712">
        <ele>1460.860596</ele>
        <time>2013-05-11T09:41:00Z</time>
      </trkpt>
      <trkpt lat="45.40004" lon="5.90728">
        <ele>1445.960205</ele>
        <time>2013-05-11T09:42:27Z</time>
      </trkpt>
      <trkpt lat="45.40004" lon="5.90699">
        <ele>1457.976807</ele>
        <time>2013-05-11T09:42:35Z</time>
      </trkpt>
      <trkpt lat="45.40064" lon="5.90698">
        <ele>1454.612061</ele>
        <time>2013-05-11T09:44:48Z</time>
      </trkpt>
      <trkpt lat="45.40053" lon="5.907">
        <ele>1456.534668</ele>
        <time>2013-05-11T09:45:30Z</time>
      </trkpt>
      <trkpt lat="45.4009" lon="5.90648">
        <ele>1458.457275</ele>
        <time>2013-05-11T09:47:08Z</time>
      </trkpt>
      <trkpt lat="45.40115" lon="5.90664">
        <ele>1447.882812</ele>
        <time>2013-05-11T09:48:53Z</time>
      </trkpt>
      <trkpt lat="45.4011" lon="5.90684">
        <ele>1454.131592</ele>
        <time>2013-05-11T09:50:03Z</time>
      </trkpt>
      <trkpt lat="45.40142" lon="5.90669">
        <ele>1449.80542</ele>
        <time>2013-05-11T09:52:08Z</time>
      </trkpt>
      <trkpt lat="45.40113" lon="5.90679">
        <ele>1464.705811</ele>
        <time>2013-05-11T09:53:54Z</time>
      </trkpt>
      <trkpt lat="45.4015" lon="5.90662">
        <ele>1445.960205</ele>
        <time>2013-05-11T09:57:02Z</time>
      </trkpt>
      <trkpt lat="45.40118" lon="5.90666">
        <ele>1449.80542</ele>
        <time>2013-05-11T09:58:36Z</time>
      </trkpt>
      <trkpt lat="45.40154" lon="5.90623">
        <ele>1438.750488</ele>
        <time>2013-05-11T10:00:55Z</time>
      </trkpt>
      <trkpt lat="45.40173" lon="5.9063">
        <ele>1430.098389</ele>
        <time>2013-05-11T10:01:36Z</time>
      </trkpt>
      <trkpt lat="45.40181" lon="5.90611">
        <ele>1430.579102</ele>
        <time>2013-05-11T10:02:13Z</time>
      </trkpt>
      <trkpt lat="45.40197" lon="5.90618">
        <ele>1410.391357</ele>
        <time>2013-05-11T10:04:11Z</time>
      </trkpt>
      <trkpt lat="45.40204" lon="5.90585">
        <ele>1404.143066</ele>
        <time>2013-05-11T10:05:00Z</time>
      </trkpt>
      <trkpt lat="45.40268" lon="5.90555">
        <ele>1397.894287</ele>
        <time>2013-05-11T10:07:57Z</time>
      </trkpt>
      <trkpt lat="45.40289" lon="5.90516">
        <ele>1390.203857</ele>
        <time>2013-05-11T10:10:17Z</time>
      </trkpt>
      <trkpt lat="45.40305" lon="5.90539">
        <ele>1390.203857</ele>
        <time>2013-05-11T10:11:00Z</time>
      </trkpt>
      <trkpt lat="45.40317" lon="5.90527">
        <ele>1392.126465</ele>
        <time>2013-05-11T10:11:09Z</time>
      </trkpt>
      <trkpt lat="45.40313" lon="5.90559">
        <ele>1392.607178</ele>
        <time>2013-05-11T10:11:35Z</time>
      </trkpt>
      <trkpt lat="45.40295" lon="5.90521">
        <ele>1394.049072</ele>
        <time>2013-05-11T10:12:29Z</time>
      </trkpt>
      <trkpt lat="45.40286" lon="5.90528">
        <ele>1383.955078</ele>
        <time>2013-05-11T10:13:20Z</time>
      </trkpt>
      <trkpt lat="45.40293" lon="5.9051">
        <ele>1386.358398</ele>
        <time>2013-05-11T10:14:52Z</time>
      </trkpt>
      <trkpt lat="45.40293" lon="5.90524">
        <ele>1371.938477</ele>
        <time>2013-05-11T10:15:32Z</time>
      </trkpt>
      <trkpt lat="45.40298" lon="5.90503">
        <ele>1384.435791</ele>
        <time>2013-05-11T10:16:58Z</time>
      </trkpt>
      <trkpt lat="45.4036" lon="5.90516">
        <ele>1346.944336</ele>
        <time>2013-05-11T10:20:10Z</time>
      </trkpt>
      <trkpt lat="45.40354" lon="5.90474">
        <ele>1332.524658</ele>
        <time>2013-05-11T10:21:17Z</time>
      </trkpt>
      <trkpt lat="45.40372" lon="5.90462">
        <ele>1329.640625</ele>
        <time>2013-05-11T10:21:55Z</time>
      </trkpt>
      <trkpt lat="45.40376" lon="5.90423">
        <ele>1320.027344</ele>
        <time>2013-05-11T10:23:04Z</time>
      </trkpt>
      <trkpt lat="45.40349" lon="5.904">
        <ele>1301.281738</ele>
        <time>2013-05-11T10:23:48Z</time>
      </trkpt>
      <trkpt lat="45.4035" lon="5.90376">
        <ele>1311.375732</ele>
        <time>2013-05-11T10:24:14Z</time>
      </trkpt>
      <trkpt lat="45.40335" lon="5.90398">
        <ele>1293.110596</ele>
        <time>2013-05-11T10:24:58Z</time>
      </trkpt>
      <trkpt lat="45.40353" lon="5.90377">
        <ele>1311.856445</ele>
        <time>2013-05-11T10:25:37Z</time>
      </trkpt>
      <trkpt lat="45.40351" lon="5.90272">
        <ele>1266.193604</ele>
        <time>2013-05-11T10:27:55Z</time>
      </trkpt>
      <trkpt lat="45.4033" lon="5.90296">
        <ele>1270.038818</ele>
        <time>2013-05-11T10:28:26Z</time>
      </trkpt>
      <trkpt lat="45.40315" lon="5.90163">
        <ele>1226.779541</ele>
        <time>2013-05-11T10:31:00Z</time>
      </trkpt>
      <trkpt lat="45.40342" lon="5.90139">
        <ele>1229.182861</ele>
        <time>2013-05-11T10:31:42Z</time>
      </trkpt>
      <trkpt lat="45.40331" lon="5.90121">
        <ele>1221.492188</ele>
        <time>2013-05-11T10:32:00Z</time>
      </trkpt>
      <trkpt lat="45.4034" lon="5.89992">
        <ele>1190.72998</ele>
        <time>2013-05-11T10:34:42Z</time>
      </trkpt>
      <trkpt lat="45.40343" lon="5.90008">
        <ele>1208.514404</ele>
        <time>2013-05-11T10:37:04Z</time>
      </trkpt>
      <trkpt lat="45.40304" lon="5.90053">
        <ele>1219.089111</ele>
        <time>2013-05-11T10:37:49Z</time>
      </trkpt>
      <trkpt lat="45.40244" lon="5.90076">
        <ele>1171.984375</ele>
        <time>2013-05-11T10:39:25Z</time>
      </trkpt>
      <trkpt lat="45.40201" lon="5.9005">
        <ele>1138.338379</ele>
        <time>2013-05-11T10:41:53Z</time>
      </trkpt>
      <trkpt lat="45.40221" lon="5.90045">
        <ele>1132.089844</ele>
        <time>2013-05-11T10:42:46Z</time>
      </trkpt>
      <trkpt lat="45.40207" lon="5.90003">
        <ele>1135.935059</ele>
        <time>2013-05-11T10:44:37Z</time>
      </trkpt>
      <trkpt lat="45.40218" lon="5.8999">
        <ele>1104.21167</ele>
        <time>2013-05-11T10:45:43Z</time>
      </trkpt>
      <trkpt lat="45.40188" lon="5.89986">
        <ele>1123.918457</ele>
        <time>2013-05-11T10:47:21Z</time>
      </trkpt>
      <trkpt lat="45.40157" lon="5.89917">
        <ele>1083.062256</ele>
        <time>2013-05-11T10:50:09Z</time>
      </trkpt>
      <trkpt lat="45.40168" lon="5.89907">
        <ele>1070.56543</ele>
        <time>2013-05-11T10:50:46Z</time>
      </trkpt>
      <trkpt lat="45.40145" lon="5.89739">
        <ele>1020.096191</ele>
        <time>2013-05-11T10:55:11Z</time>
      </trkpt>
      <trkpt lat="45.4018" lon="5.89711">
        <ele>1016.731445</ele>
        <time>2013-05-11T10:56:12Z</time>
      </trkpt>
      <trkpt lat="45.40168" lon="5.89714">
        <ele>1026.825439</ele>
        <time>2013-05-11T10:56:44Z</time>
      </trkpt>
      <trkpt lat="45.40206" lon="5.89697">
        <ele>1022.018799</ele>
        <time>2013-05-11T10:58:22Z</time>
      </trkpt>
      <trkpt lat="45.40225" lon="5.89652">
        <ele>1001.831055</ele>
        <time>2013-05-11T10:59:29Z</time>
      </trkpt>
      <trkpt lat="45.4019" lon="5.89522">
        <ele>966.74292</ele>
        <time>2013-05-11T11:02:15Z</time>
      </trkpt>
      <trkpt lat="45.40176" lon="5.89516">
        <ele>974.914307</ele>
        <time>2013-05-11T11:02:41Z</time>
      </trkpt>
      <trkpt lat="45.40181" lon="5.89502">
        <ele>964.820312</ele>
        <time>2013-05-11T11:02:52Z</time>
      </trkpt>
      <trkpt lat="45.4017" lon="5.89501">
        <ele>950.881104</ele>
        <time>2013-05-11T11:03:28Z</time>
      </trkpt>
      <trkpt lat="45.40177" lon="5.89474">
        <ele>958.091309</ele>
        <time>2013-05-11T11:03:46Z</time>
      </trkpt>
      <trkpt lat="45.4015" lon="5.89332">
        <ele>922.041504</ele>
        <time>2013-05-11T11:06:49Z</time>
      </trkpt>
      <trkpt lat="45.40141" lon="5.89337">
        <ele>915.3125</ele>
        <time>2013-05-11T11:06:58Z</time>
      </trkpt>
      <trkpt lat="45.40126" lon="5.89294">
        <ele>910.986572</ele>
        <time>2013-05-11T11:07:50Z</time>
      </trkpt>
      <trkpt lat="45.40105" lon="5.8928">
        <ele>896.566895</ele>
        <time>2013-05-11T11:08:15Z</time>
      </trkpt>
      <trkpt lat="45.40129" lon="5.89175">
        <ele>879.262939</ele>
        <time>2013-05-11T11:09:56Z</time>
      </trkpt>
      <trkpt lat="45.40119" lon="5.89175">
        <ele>908.583252</ele>
        <time>2013-05-11T11:11:27Z</time>
      </trkpt>
      <trkpt lat="45.40183" lon="5.8907">
        <ele>859.555908</ele>
        <time>2013-05-11T11:12:57Z</time>
      </trkpt>
      <trkpt lat="45.40186" lon="5.89026">
        <ele>864.843262</ele>
        <time>2013-05-11T11:13:26Z</time>
      </trkpt>
      <trkpt lat="45.40239" lon="5.88951">
        <ele>861.47876</ele>
        <time>2013-05-11T11:17:05Z</time>
      </trkpt>
      <trkpt lat="45.40297" lon="5.88944">
        <ele>863.881836</ele>
        <time>2013-05-11T11:18:22Z</time>
      </trkpt>
      <trkpt lat="45.40345" lon="5.8886">
        <ele>850.904053</ele>
        <time>2013-05-11T11:20:11Z</time>
      </trkpt>
    </trkseg>
  </trk>
</gpx>